Time;durP1;ratioP1;P1;durP2;ratioP2;P2;SDS_P1;SDS_P2;PMS_P1;PMS_P2;Temp;Humidity;BMP_temperature;BMP_pressure;BME280_temperature;BME280_humidity;BME280_pressure;Samples;Min_cycle;Max_cycle;Signal;HPM_P1;HPM_P2
2021/09/27 00:00:01;;;;;;;0.57;0.30;;;;;;;10.81;67.96;100907.73;1661035;85;21830;-59
2021/09/27 00:02:29;;;;;;;6.43;0.30;;;;;;;10.86;67.93;100910.72;1678803;85;21066;-60
2021/09/27 00:04:55;;;;;;;2.35;0.78;;;;;;;10.81;67.99;100904.59;1671268;85;21052;-60
2021/09/27 00:07:21;;;;;;;1.55;0.30;;;;;;;10.73;68.20;100905.13;1684627;85;21045;-59
2021/09/27 00:09:47;;;;;;;2.77;0.30;;;;;;;10.65;68.46;100901.50;1658588;86;21687;-59
2021/09/27 00:12:13;;;;;;;1.75;0.53;;;;;;;10.58;68.60;100905.86;1657645;86;20987;-59
2021/09/27 00:14:41;;;;;;;1.57;0.30;;;;;;;10.51;68.87;100914.25;1647859;86;21008;-59
2021/09/27 00:17:07;;;;;;;0.93;0.33;;;;;;;10.49;69.02;100918.41;1660663;86;21047;-59
2021/09/27 00:19:35;;;;;;;1.07;0.30;;;;;;;10.52;69.00;100915.89;1661381;86;21576;-60
2021/09/27 00:22:03;;;;;;;1.07;0.30;;;;;;;10.54;69.01;100919.22;1662952;84;21008;-59
2021/09/27 00:24:29;;;;;;;0.70;0.33;;;;;;;10.52;69.08;100918.05;1643930;86;21553;-59
2021/09/27 00:26:55;;;;;;;2.22;0.37;;;;;;;10.48;69.29;100921.25;1665649;84;21083;-59
2021/09/27 00:29:21;;;;;;;2.52;0.40;;;;;;;10.45;69.59;100926.44;1657820;86;21131;-60
2021/09/27 00:31:47;;;;;;;0.60;0.30;;;;;;;10.39;69.67;100928.44;1654224;84;21058;-59
2021/09/27 00:34:14;;;;;;;;;;;;;;;10.00;70.09;100873.76;1651063;86;21043;-60
2021/09/27 00:36:40;;;;;;;0.77;0.30;;;;;;;10.32;70.07;100929.64;1650034;86;20183;-59
2021/09/27 00:39:07;;;;;;;4.05;0.30;;;;;;;10.31;70.15;100927.97;1663401;86;21668;-58
2021/09/27 00:41:35;;;;;;;0.93;0.53;;;;;;;10.32;70.32;100929.64;1655734;86;21508;-60
2021/09/27 00:44:03;;;;;;;2.10;0.20;;;;;;;10.26;70.29;100935.60;1656029;86;21286;-59
2021/09/27 00:46:32;;;;;;;0.70;0.43;;;;;;;10.27;70.50;100933.80;1647981;86;21560;-59
2021/09/27 00:49:02;;;;;;;1.00;0.47;;;;;;;10.23;70.61;100931.97;1654630;86;21099;-61
2021/09/27 00:51:33;;;;;;;3.40;0.20;;;;;;;10.22;70.57;100933.47;1658908;85;21548;-61
2021/09/27 00:54:05;;;;;;;0.30;0.20;;;;;;;10.28;70.56;100940.77;1658769;84;21014;-57
2021/09/27 00:56:42;;;;;;;2.10;0.30;;;;;;;10.24;70.56;100934.95;1649425;84;21069;-57
2021/09/27 00:59:11;;;;;;;0.40;0.23;;;;;;;10.19;70.72;100941.31;1668170;86;21094;-58
2021/09/27 01:01:37;;;;;;;1.40;0.20;;;;;;;10.12;70.96;100945.66;1655944;84;21163;-57
2021/09/27 01:04:05;;;;;;;2.87;0.93;;;;;;;10.08;71.14;100948.33;1655712;84;21047;-57
2021/09/27 01:07:07;;;;;;;2.43;0.40;;;;;;;10.10;71.20;100947.66;1685502;83;21011;-57
2021/09/27 01:10:05;;;;;;;0.40;0.20;;;;;;;10.15;71.09;100939.97;1683859;85;21109;-59
2021/09/27 01:12:55;;;;;;;0.93;0.20;;;;;;;10.14;71.17;100953.80;1675800;85;21074;-57
2021/09/27 01:15:45;;;;;;;0.80;0.30;;;;;;;10.05;71.48;100942.00;1650836;84;21142;-60
2021/09/27 01:18:38;;;;;;;0.50;0.20;;;;;;;9.98;71.98;100945.83;1650486;84;21571;-60
2021/09/27 01:21:31;;;;;;;1.97;0.40;;;;;;;9.96;72.65;100949.17;1666093;84;21003;-60
2021/09/27 01:24:28;;;;;;;0.87;0.50;;;;;;;9.98;72.73;100945.83;1664084;84;21728;-60
2021/09/27 01:27:00;;;;;;;3.33;0.40;;;;;;;10.01;72.66;100952.16;1661059;84;21570;-60
2021/09/27 01:30:11;;;;;;;1.20;0.20;;;;;;;9.96;72.96;100952.34;1644560;84;21099;-59
2021/09/27 01:32:48;;;;;;;0.40;0.30;;;;;;;9.93;73.32;100950.34;1651297;85;21642;-60
2021/09/27 01:35:23;;;;;;;0.80;0.30;;;;;;;9.96;73.52;100961.66;1657561;84;21675;-59
2021/09/27 01:38:10;;;;;;;1.27;0.30;;;;;;;10.02;73.42;100962.31;1658362;84;21058;-59
2021/09/27 01:40:53;;;;;;;0.40;0.20;;;;;;;10.06;73.43;100959.66;1664372;85;21075;-59
2021/09/27 01:43:27;;;;;;;1.07;0.67;;;;;;;10.11;73.10;100971.47;1659658;86;21016;-59
2021/09/27 01:46:20;;;;;;;4.00;0.30;;;;;;;10.13;72.87;100965.47;1660776;84;21066;-59
2021/09/27 01:48:55;;;;;;;1.70;0.20;;;;;;;10.14;72.55;100968.45;1660604;85;21698;-58
2021/09/27 01:51:32;;;;;;;0.40;0.27;;;;;;;10.18;72.10;100972.94;1665892;86;21576;-59
2021/09/27 01:54:04;;;;;;;0.40;0.20;;;;;;;10.25;71.86;100969.11;1664992;84;21040;-58
2021/09/27 01:56:48;;;;;;;1.30;0.40;;;;;;;10.28;71.73;100982.92;1659749;85;21102;-59
2021/09/27 01:59:38;;;;;;;2.37;0.20;;;;;;;10.29;71.67;100983.74;1656725;86;21072;-59
2021/09/27 02:02:50;;;;;;;0.93;0.20;;;;;;;10.27;71.72;100981.24;1660032;86;21067;-60
2021/09/27 02:05:37;;;;;;;2.13;0.30;;;;;;;10.28;71.58;100980.73;1655511;86;21046;-59
2021/09/27 02:08:11;;;;;;;0.60;0.20;;;;;;;10.37;71.29;100985.58;1648977;86;21047;-60
2021/09/27 02:10:48;;;;;;;0.80;0.40;;;;;;;10.20;71.13;100947.47;1654462;85;21422;-60
2021/09/27 02:13:37;;;;;;;0.30;0.23;;;;;;;10.40;71.14;100989.25;1657380;86;21133;-59
2021/09/27 02:16:30;;;;;;;4.63;0.20;;;;;;;10.33;71.30;100985.91;1655607;86;21007;-60
2021/09/27 02:19:05;;;;;;;0.67;0.43;;;;;;;10.28;71.70;100985.59;1662471;84;21104;-59
2021/09/27 02:21:37;;;;;;;0.47;0.20;;;;;;;10.29;71.58;100993.06;1658370;86;21093;-60
2021/09/27 02:24:17;;;;;;;0.30;0.20;;;;;;;10.28;71.68;100983.40;1657554;86;21147;-59
2021/09/27 02:26:47;;;;;;;0.40;0.30;;;;;;;10.27;71.81;100986.58;1662536;84;21062;-60
2021/09/27 02:29:16;;;;;;;2.83;0.83;;;;;;;10.22;72.13;100986.75;1671612;85;21218;-60
2021/09/27 02:31:57;;;;;;;1.03;0.43;;;;;;;10.15;72.20;100993.25;1667144;84;21119;-60
2021/09/27 02:34:41;;;;;;;0.90;0.20;;;;;;;10.12;72.34;100996.27;1668667;86;21051;-59
2021/09/27 02:37:12;;;;;;;1.57;0.33;;;;;;;10.20;72.26;100999.41;1653749;84;21102;-59
2021/09/27 02:39:56;;;;;;;0.57;0.40;;;;;;;10.18;72.41;101006.75;1656692;84;21043;-59
2021/09/27 02:42:33;;;;;;;0.70;0.20;;;;;;;10.08;72.52;101001.09;1667233;84;21051;-60
2021/09/27 02:45:00;;;;;;;0.53;0.33;;;;;;;9.97;73.02;101004.61;1654749;86;21028;-58
2021/09/27 02:47:42;;;;;;;2.00;0.30;;;;;;;9.94;73.21;101007.09;1650788;84;21475;-59
2021/09/27 02:50:12;;;;;;;4.20;0.30;;;;;;;9.92;73.32;101013.91;1645023;86;21061;-59
2021/09/27 02:52:40;;;;;;;1.17;0.60;;;;;;;9.86;73.53;101009.77;1652938;84;21663;-60
2021/09/27 02:55:12;;;;;;;0.50;0.30;;;;;;;9.78;73.78;101009.28;1650016;86;21062;-60
2021/09/27 02:57:52;;;;;;;1.93;0.77;;;;;;;9.72;73.96;101015.28;1664791;84;21079;-59
2021/09/27 03:00:26;;;;;;;0.70;0.60;;;;;;;9.74;74.02;101009.28;1663820;84;21071;-60
2021/09/27 03:03:39;;;;;;;0.33;0.13;;;;;;;9.81;73.86;101010.26;1649109;86;21580;-60
2021/09/27 03:06:26;;;;;;;1.23;0.23;;;;;;;9.80;73.81;101016.59;1656830;86;21236;-59
2021/09/27 03:09:21;;;;;;;0.93;0.40;;;;;;;9.68;74.04;101015.25;1661517;86;21106;-60
2021/09/27 03:11:56;;;;;;;2.63;0.20;;;;;;;9.60;74.43;101020.58;1655690;85;21190;-60
2021/09/27 03:14:45;;;;;;;2.00;0.10;;;;;;;9.58;74.46;101009.27;1649157;84;21712;-57
2021/09/27 03:17:24;;;;;;;1.80;0.27;;;;;;;9.59;74.26;101010.44;1661687;84;21130;-57
2021/09/27 03:20:11;;;;;;;1.00;0.20;;;;;;;9.17;74.31;100951.51;1663914;84;21090;-58
2021/09/27 03:23:04;;;;;;;0.60;0.50;;;;;;;9.49;74.54;101015.92;1645048;86;21556;-59
2021/09/27 03:25:51;;;;;;;0.60;0.20;;;;;;;9.44;74.63;101023.56;1665157;84;21023;-57
2021/09/27 03:28:40;;;;;;;0.25;0.25;;;;;;;9.48;74.55;101023.56;1645385;86;21107;-57
2021/09/27 03:31:32;;;;;;;1.27;0.60;;;;;;;9.52;74.33;101016.91;1662113;86;21066;-60
2021/09/27 03:34:31;;;;;;;0.40;0.33;;;;;;;9.46;74.36;101022.90;1628943;86;21249;-60
2021/09/27 03:37:12;;;;;;;3.80;0.60;;;;;;;9.37;74.66;101021.22;1657884;84;21019;-61
2021/09/27 03:40:15;;;;;;;2.00;0.20;;;;;;;9.29;75.05;101018.05;1652816;84;21063;-61
2021/09/27 03:42:55;;;;;;;0.47;0.30;;;;;;;9.27;75.12;101019.21;1664906;86;21129;-59
2021/09/27 03:45:45;;;;;;;1.23;0.50;;;;;;;9.25;75.30;101021.17;1660298;86;20972;-60
2021/09/27 03:48:17;;;;;;;0.87;0.53;;;;;;;8.86;75.32;100969.91;1648988;86;21074;-60
2021/09/27 03:51:03;;;;;;;0.57;0.30;;;;;;;9.11;75.81;101026.64;1661645;86;21192;-61
2021/09/27 03:53:52;;;;;;;3.00;0.30;;;;;;;9.08;75.70;101023.81;1656927;86;21079;-61
2021/09/27 03:56:32;;;;;;;1.80;0.57;;;;;;;9.13;75.81;101034.78;1660060;86;21050;-60
2021/09/27 03:59:22;;;;;;;1.40;0.40;;;;;;;9.10;75.77;101032.46;1659647;86;21273;-60
2021/09/27 04:02:10;;;;;;;0.97;0.30;;;;;;;9.06;75.93;101035.59;1659946;85;22056;-60
2021/09/27 04:05:05;;;;;;;2.30;0.40;;;;;;;8.97;76.25;101034.75;1663406;86;21366;-61
2021/09/27 04:08:06;;;;;;;1.10;0.40;;;;;;;8.96;76.32;101034.39;1664554;86;21902;-61
2021/09/27 04:11:06;;;;;;;1.10;0.70;;;;;;;8.94;76.27;101037.72;1658483;86;21043;-61
2021/09/27 04:13:55;;;;;;;2.10;0.40;;;;;;;8.92;76.53;101037.05;1662447;86;21146;-59
2021/09/27 04:16:51;;;;;;;0.63;0.30;;;;;;;8.93;76.44;101038.22;1654637;86;21672;-59
2021/09/27 04:19:40;;;;;;;2.90;0.40;;;;;;;9.00;76.57;101041.05;1658131;86;22118;-60
2021/09/27 04:22:30;;;;;;;2.00;0.20;;;;;;;9.40;76.11;101047.50;1662586;86;21059;-60
2021/09/27 04:26:16;;;;;;;1.50;0.40;;;;;;;10.32;72.00;101034.90;1777624;78;22894;-59
2021/09/27 04:29:27;;;;;;;1.33;0.30;;;;;;;10.69;70.63;101039.29;1776532;79;20974;-61
2021/09/27 04:32:16;;;;;;;1.35;0.72;;;;;;;11.29;68.38;101041.85;1701896;82;21517;-61
2021/09/27 04:35:14;;;;;;;0.55;0.30;;;;;;;11.88;66.00;101043.45;1732883;80;21032;-62
2021/09/27 04:37:45;;;;;;;1.72;0.47;;;;;;;12.26;64.29;101038.61;1719601;82;21144;-62
2021/09/27 04:40:14;;;;;;;2.65;0.30;;;;;;;12.56;63.02;101034.63;1718661;82;21025;-61
2021/09/27 04:42:58;;;;;;;0.70;0.53;;;;;;;12.78;61.77;101028.36;1717188;82;21134;-60
2021/09/27 04:45:45;;;;;;;3.05;0.57;;;;;;;12.98;60.65;101033.97;1698645;82;21163;-61
2021/09/27 04:48:23;;;;;;;2.17;0.37;;;;;;;13.17;60.49;101035.22;1682595;83;21133;-61
2021/09/27 04:51:13;;;;;;;1.55;0.20;;;;;;;13.49;59.04;101029.63;1663133;83;21073;-60
2021/09/27 04:54:04;;;;;;;0.30;0.20;;;;;;;13.62;58.62;101033.78;1676036;83;20985;-61
2021/09/27 04:56:50;;;;;;;0.62;0.42;;;;;;;13.75;58.16;101044.61;1704757;80;21031;-60
2021/09/27 04:59:31;;;;;;;1.50;0.47;;;;;;;14.04;56.91;101030.73;1734013;80;21069;-60
2021/09/27 05:02:17;;;;;;;1.75;0.20;;;;;;;14.16;56.22;101037.20;1715981;80;21044;-62
2021/09/27 05:04:51;;;;;;;3.08;0.13;;;;;;;14.21;56.17;101029.94;1699177;82;21065;-56
2021/09/27 05:07:38;;;;;;;0.70;0.20;;;;;;;14.31;56.12;101037.11;1715125;82;21077;-63
2021/09/27 05:10:37;;;;;;;1.10;0.20;;;;;;;14.68;55.27;101028.39;1697467;82;21124;-61
2021/09/27 05:13:11;;;;;;;0.30;0.10;;;;;;;14.91;54.01;101033.45;1661776;83;21047;-61
2021/09/27 05:16:04;;;;;;;1.20;0.50;;;;;;;14.97;53.83;101029.14;1656167;84;21360;-61
2021/09/27 05:18:59;;;;;;;2.58;0.28;;;;;;;15.12;53.00;101029.81;1655821;84;21655;-60
2021/09/27 05:21:49;;;;;;;1.62;0.10;;;;;;;15.18;53.25;101024.15;1639370;87;21171;-60
2021/09/27 05:24:43;;;;;;;1.12;0.20;;;;;;;15.75;51.88;101030.10;1580124;87;21084;-59
2021/09/27 05:27:20;;;;;;;2.72;0.20;;;;;;;15.75;51.88;101030.10;1650233;84;21073;-59
2021/09/27 05:30:19;;;;;;;1.32;0.20;;;;;;;15.96;51.19;101029.89;1644329;86;21097;-59
2021/09/27 05:33:22;;;;;;;0.88;0.35;;;;;;;15.96;51.19;101029.89;1621849;85;21112;-59
2021/09/27 05:36:18;;;;;;;2.42;0.30;;;;;;;16.15;50.16;101034.94;1647590;85;21065;-59
2021/09/27 05:39:08;;;;;;;1.22;0.40;;;;;;;16.18;50.20;101032.88;1660198;84;21036;-60
2021/09/27 05:42:19;;;;;;;0.90;0.20;;;;;;;16.91;49.71;101035.42;1650469;85;21069;-62
2021/09/27 05:45:12;;;;;;;0.17;0.17;;;;;;;16.91;49.71;101035.42;1643280;84;21109;-59
2021/09/27 05:48:08;;;;;;;1.17;0.30;;;;;;;17.36;47.19;101040.80;1616721;87;21171;-59
2021/09/27 05:50:41;;;;;;;6.08;0.35;;;;;;;17.38;47.58;101034.67;1609931;87;21096;-60
2021/09/27 05:53:45;;;;;;;0.62;0.20;;;;;;;17.45;46.98;101038.69;1629260;85;21629;-60
2021/09/27 05:56:31;;;;;;;1.25;0.40;;;;;;;17.36;47.00;101032.72;1620599;87;21098;-60
2021/09/27 05:59:22;;;;;;;1.75;0.37;;;;;;;17.21;47.50;101031.66;1636217;86;21065;-60
2021/09/27 06:02:23;;;;;;;1.25;0.30;;;;;;;17.32;47.41;101035.02;1612636;86;21103;-61
2021/09/27 06:05:04;;;;;;;1.45;0.10;;;;;;;17.47;46.54;101035.25;1601913;88;21129;-61
2021/09/27 06:07:38;;;;;;;0.62;0.20;;;;;;;17.48;47.02;101036.39;1623432;86;21051;-60
2021/09/27 06:10:25;;;;;;;1.67;0.45;;;;;;;17.47;46.50;101037.95;1625279;87;21100;-62
2021/09/27 06:13:30;;;;;;;0.65;0.15;;;;;;;17.17;47.00;101043.09;1619842;86;21101;-60
2021/09/27 06:16:02;;;;;;;0.30;0.20;;;;;;;17.12;47.77;101036.98;1615828;86;21130;-61
2021/09/27 06:19:08;;;;;;;2.20;0.30;;;;;;;17.10;47.42;101045.80;1619079;86;21629;-60
2021/09/27 06:22:05;;;;;;;0.30;0.10;;;;;;;16.74;48.45;101044.45;1623377;86;21160;-63
2021/09/27 06:24:54;;;;;;;1.50;0.55;;;;;;;16.24;49.55;101050.36;1584103;86;21125;-60
2021/09/27 06:27:51;;;;;;;0.85;0.10;;;;;;;15.60;50.72;101046.91;1628178;86;21049;-61
2021/09/27 06:30:23;;;;;;;0.55;0.20;;;;;;;14.72;53.33;101044.93;1654287;84;21030;-60
2021/09/27 06:33:07;;;;;;;0.55;0.37;;;;;;;14.06;55.27;101052.81;1659805;84;21116;-61
2021/09/27 06:35:36;;;;;;;0.35;0.30;;;;;;;13.77;56.54;101056.48;1654343;84;21020;-59
2021/09/27 06:38:07;;;;;;;6.20;0.20;;;;;;;13.40;58.13;101051.16;1663530;84;21049;-63
2021/09/27 06:40:40;;;;;;;1.55;0.10;;;;;;;13.02;59.38;101053.98;1668180;84;21017;-62
2021/09/27 06:43:11;;;;;;;5.15;0.20;;;;;;;12.64;60.77;101048.75;1689566;84;21178;-62
2021/09/27 06:45:38;;;;;;;1.25;0.20;;;;;;;12.38;61.18;101055.06;1681966;82;21083;-61
2021/09/27 06:48:05;;;;;;;0.25;0.10;;;;;;;12.28;62.26;101057.97;1698198;82;21952;-63
2021/09/27 06:50:31;;;;;;;0.20;0.20;;;;;;;12.26;62.41;101057.33;1711121;82;21032;-63
2021/09/27 06:52:57;;;;;;;0.75;0.10;;;;;;;12.20;62.82;101048.19;1709301;82;21035;-63
2021/09/27 06:55:24;;;;;;;0.20;0.10;;;;;;;12.16;62.56;101057.59;1693319;81;21072;-62
2021/09/27 06:57:50;;;;;;;0.10;0.10;;;;;;;12.11;62.56;101058.66;1664535;84;21209;-64
2021/09/27 07:00:16;;;;;;;1.02;0.20;;;;;;;12.05;62.47;101060.21;1667469;83;21141;-63
2021/09/27 07:02:42;;;;;;;;;;;;;;;11.96;63.60;101055.09;1683849;83;21075;-61
2021/09/27 07:05:10;;;;;;;0.68;0.30;;;;;;;12.02;63.34;101063.23;1683331;83;20153;-62
2021/09/27 07:07:39;;;;;;;0.47;0.10;;;;;;;12.09;62.62;101060.66;1680509;83;21112;-64
2021/09/27 07:10:10;;;;;;;0.40;0.10;;;;;;;12.15;62.22;101057.28;1670670;84;21008;-61
2021/09/27 07:12:36;;;;;;;0.10;0.10;;;;;;;12.16;62.33;101071.47;1658513;83;21048;-64
2021/09/27 07:15:04;;;;;;;0.10;0.10;;;;;;;12.10;61.39;101059.66;1640232;85;21017;-62
2021/09/27 07:17:30;;;;;;;2.50;0.20;;;;;;;12.00;62.24;101055.08;1638105;85;21611;-66
2021/09/27 07:19:56;;;;;;;1.80;0.47;;;;;;;11.96;62.76;101059.95;1581091;89;21071;-62
2021/09/27 07:22:23;;;;;;;0.28;0.10;;;;;;;12.04;62.63;101053.70;1651347;85;21594;-66
2021/09/27 07:24:52;;;;;;;1.40;0.68;;;;;;;12.17;62.49;101061.94;1655783;84;21578;-64
2021/09/27 07:27:18;;;;;;;0.20;0.10;;;;;;;12.31;62.50;101058.13;1664409;84;21026;-64
2021/09/27 07:29:44;;;;;;;1.30;0.20;;;;;;;12.39;61.67;101061.53;1668597;84;21041;-60
2021/09/27 07:32:10;;;;;;;1.92;0.20;;;;;;;12.44;61.12;101057.81;1669748;84;21077;-62
2021/09/27 07:34:36;;;;;;;0.30;0.10;;;;;;;12.45;61.21;101062.65;1670037;84;21069;-60
2021/09/27 07:37:04;;;;;;;1.35;0.30;;;;;;;12.41;61.50;101062.21;1669926;84;21005;-62
2021/09/27 07:39:32;;;;;;;1.70;0.10;;;;;;;12.43;61.12;101059.33;1623008;86;21125;-62
2021/09/27 07:41:58;;;;;;;0.10;0.10;;;;;;;12.46;60.80;101054.97;1622591;86;21154;-62
2021/09/27 07:44:24;;;;;;;0.20;0.10;;;;;;;12.47;61.32;101060.66;1626540;85;21059;-62
2021/09/27 07:46:50;;;;;;;0.90;0.25;;;;;;;12.55;61.27;101053.87;1645222;85;21075;-64
2021/09/27 07:49:16;;;;;;;0.40;0.20;;;;;;;12.71;60.80;101060.05;1650429;85;20987;-62
2021/09/27 07:51:43;;;;;;;0.30;0.10;;;;;;;12.80;58.65;101066.97;1651264;85;21225;-63
2021/09/27 07:54:10;;;;;;;0.30;0.10;;;;;;;12.79;59.19;101058.12;1650790;85;21113;-63
2021/09/27 07:56:36;;;;;;;0.10;0.10;;;;;;;12.77;58.94;101058.81;1684341;80;21005;-63
2021/09/27 07:59:06;;;;;;;0.30;0.10;;;;;;;12.77;58.53;101054.80;1681215;83;21080;-61
2021/09/27 08:01:31;;;;;;;0.10;0.00;;;;;;;12.75;58.67;101054.64;1686520;83;21606;-63
2021/09/27 08:03:57;;;;;;;1.12;0.10;;;;;;;12.74;58.82;101059.69;1690599;83;21637;-62
2021/09/27 08:06:23;;;;;;;0.20;0.10;;;;;;;12.74;58.09;101061.84;1682515;83;21179;-65
2021/09/27 08:08:51;;;;;;;0.85;0.10;;;;;;;12.77;57.96;101059.30;1682406;83;21067;-64
2021/09/27 08:11:17;;;;;;;0.65;0.15;;;;;;;12.80;58.21;101060.28;1677057;83;21196;-63
2021/09/27 08:13:45;;;;;;;0.10;0.08;;;;;;;12.86;58.42;101059.53;1645439;85;21121;-62
2021/09/27 08:16:12;;;;;;;0.10;0.10;;;;;;;12.88;58.61;101056.16;1645101;85;21527;-64
2021/09/27 08:18:38;;;;;;;0.08;0.00;;;;;;;12.88;58.29;101056.16;1646615;85;21272;-63
2021/09/27 08:21:11;;;;;;;0.20;0.05;;;;;;;12.85;57.54;101046.67;1652854;86;21136;-63
2021/09/27 08:23:38;;;;;;;0.10;0.00;;;;;;;12.79;57.62;101050.09;1644892;84;21088;-63
2021/09/27 08:26:07;;;;;;;0.15;0.00;;;;;;;12.79;57.36;101060.80;1652249;85;21065;-63
2021/09/27 08:28:38;;;;;;;0.13;0.00;;;;;;;12.80;57.49;101057.60;1654201;85;21057;-62
2021/09/27 08:31:14;;;;;;;0.57;0.10;;;;;;;12.78;57.40;101052.95;1654988;85;21069;-63
2021/09/27 08:33:42;;;;;;;0.42;0.13;;;;;;;12.76;57.07;101073.70;1649058;84;21023;-61
2021/09/27 08:36:13;;;;;;;0.20;0.15;;;;;;;12.68;56.73;101061.74;1679161;84;21052;-63
2021/09/27 08:38:40;;;;;;;0.65;0.17;;;;;;;12.70;56.63;101065.91;1671942;84;21590;-63
2021/09/27 08:41:29;;;;;;;1.82;0.20;;;;;;;12.80;56.60;101066.97;1666089;83;21427;-63
2021/09/27 08:44:19;;;;;;;0.20;0.10;;;;;;;12.95;56.49;101065.10;1681928;84;21081;-63
2021/09/27 08:47:02;;;;;;;0.33;0.10;;;;;;;13.16;54.70;101065.67;1674252;84;21083;-62
2021/09/27 08:49:58;;;;;;;0.15;0.10;;;;;;;13.26;53.47;101050.67;1675019;83;21538;-63
2021/09/27 08:52:30;;;;;;;0.10;0.10;;;;;;;13.23;52.59;101052.38;1664170;84;21099;-63
2021/09/27 08:55:00;;;;;;;1.05;0.00;;;;;;;13.10;53.14;101045.53;1667424;84;21151;-65
2021/09/27 08:57:59;;;;;;;0.10;0.03;;;;;;;13.02;53.40;101043.28;1655123;84;21089;-65
2021/09/27 09:00:51;;;;;;;0.68;0.10;;;;;;;12.96;54.31;101041.36;1661419;84;21075;-62
2021/09/27 09:03:59;;;;;;;0.13;0.10;;;;;;;12.92;54.51;101043.23;1692879;83;21065;-63
2021/09/27 09:06:38;;;;;;;;;;;;;;;12.98;53.96;101042.00;1686932;83;21001;-61
2021/09/27 09:09:17;;;;;;;0.37;0.15;;;;;;;13.09;53.33;101044.71;1685166;83;20447;-63
2021/09/27 09:12:01;;;;;;;1.95;0.10;;;;;;;13.21;53.20;101042.37;1690013;83;21148;-64
2021/09/27 09:14:53;;;;;;;0.20;0.10;;;;;;;13.44;52.13;101044.39;1678670;83;21056;-65
2021/09/27 09:17:31;;;;;;;0.42;0.00;;;;;;;13.62;51.56;101035.94;1687664;83;21060;-64
2021/09/27 09:20:02;;;;;;;0.00;0.00;;;;;;;13.71;50.46;101056.74;1674061;83;21135;-66
2021/09/27 09:22:39;;;;;;;2.35;0.00;;;;;;;13.70;50.31;101041.67;1682791;83;21103;-63
2021/09/27 09:25:12;;;;;;;0.20;0.00;;;;;;;13.72;48.72;101045.50;1678696;83;21055;-63
2021/09/27 09:27:41;;;;;;;0.20;0.00;;;;;;;13.69;49.43;101048.56;1683717;83;21076;-64
2021/09/27 09:30:09;;;;;;;2.85;0.00;;;;;;;13.70;49.74;101056.41;1672414;83;21161;-62
2021/09/27 09:32:37;;;;;;;1.87;0.10;;;;;;;13.71;50.38;101046.52;1671698;83;21080;-62
2021/09/27 09:35:26;;;;;;;1.30;0.10;;;;;;;13.73;54.09;101039.96;1682230;83;21052;-63
2021/09/27 09:38:10;;;;;;;2.67;0.10;;;;;;;13.78;55.60;101044.73;1682916;83;21064;-62
2021/09/27 09:40:49;;;;;;;1.75;0.10;;;;;;;13.79;56.75;101048.56;1670516;83;21705;-61
2021/09/27 09:43:29;;;;;;;1.05;0.20;;;;;;;13.72;56.39;101049.52;1673708;83;21056;-62
2021/09/27 09:46:27;;;;;;;0.45;0.15;;;;;;;13.62;56.91;101047.98;1680488;83;21016;-63
2021/09/27 09:49:09;;;;;;;0.25;0.20;;;;;;;13.60;58.04;101053.23;1687702;83;21626;-62
2021/09/27 09:51:47;;;;;;;0.30;0.10;;;;;;;13.60;57.73;101047.36;1681897;83;21503;-63
2021/09/27 09:54:21;;;;;;;3.92;0.40;;;;;;;13.59;58.49;101053.72;1683542;83;21143;-62
2021/09/27 09:57:00;;;;;;;0.40;0.10;;;;;;;13.56;59.08;101062.64;1670273;83;21120;-63
2021/09/27 09:59:36;;;;;;;2.10;0.20;;;;;;;13.49;59.04;101051.05;1686934;85;21060;-62
2021/09/27 10:02:08;;;;;;;0.42;0.10;;;;;;;13.41;59.71;101053.31;1690763;83;21040;-62
2021/09/27 10:04:45;;;;;;;0.47;0.10;;;;;;;13.36;59.80;101053.08;1679807;83;22201;-63
2021/09/27 10:07:22;;;;;;;1.57;0.10;;;;;;;12.95;59.94;100987.50;1675741;83;21022;-61
2021/09/27 10:09:57;;;;;;;0.72;0.10;;;;;;;13.35;60.44;101057.58;1688082;85;21646;-62
2021/09/27 10:12:50;;;;;;;0.43;0.20;;;;;;;13.35;59.97;101058.09;1673299;83;21009;-62
2021/09/27 10:15:40;;;;;;;0.35;0.20;;;;;;;13.33;59.89;101054.27;1664719;83;21551;-62
2021/09/27 10:18:15;;;;;;;0.53;0.23;;;;;;;13.30;59.86;101064.48;1685165;83;21052;-60
2021/09/27 10:21:05;;;;;;;0.55;0.25;;;;;;;13.28;60.33;101060.68;1670271;83;21986;-63
2021/09/27 10:23:37;;;;;;;0.30;0.10;;;;;;;13.30;59.67;101060.47;1678642;83;20996;-62
2021/09/27 10:26:33;;;;;;;0.20;0.20;;;;;;;13.24;60.04;101065.58;1680145;83;21053;-62
2021/09/27 10:29:17;;;;;;;1.95;0.15;;;;;;;13.25;60.18;101065.06;1683718;83;21612;-61
2021/09/27 10:32:08;;;;;;;2.92;0.20;;;;;;;13.28;59.87;101062.51;1667444;84;21024;-63
2021/09/27 10:34:34;;;;;;;0.80;0.30;;;;;;;13.32;60.01;101063.33;1635420;85;20944;-62
2021/09/27 10:37:16;;;;;;;0.95;0.17;;;;;;;13.33;59.98;101068.17;1687584;83;21116;-62
2021/09/27 10:39:49;;;;;;;0.98;0.20;;;;;;;13.31;60.04;101069.69;1683543;83;21068;-62
2021/09/27 10:42:21;;;;;;;2.72;0.17;;;;;;;13.22;59.62;101054.72;1683493;83;21017;-57
2021/09/27 10:44:52;;;;;;;0.10;0.10;;;;;;;13.12;59.08;101060.37;1686940;83;21095;-58
2021/09/27 10:47:34;;;;;;;0.75;0.10;;;;;;;13.04;59.09;101063.17;1684596;83;21056;-58
2021/09/27 10:50:15;;;;;;;0.20;0.20;;;;;;;12.93;58.93;101068.48;1682209;83;20989;-57
2021/09/27 10:52:56;;;;;;;2.47;0.82;;;;;;;12.83;59.54;101063.93;1677513;83;21271;-57
2021/09/27 10:55:50;;;;;;;1.10;0.70;;;;;;;12.74;60.18;101061.02;1633337;84;21094;-59
2021/09/27 10:58:58;;;;;;;3.25;2.37;;;;;;;12.71;61.26;101062.72;1666659;85;22114;-58
2021/09/27 11:01:44;;;;;;;1.43;1.17;;;;;;;12.66;61.13;101069.45;1683352;83;21095;-57
2021/09/27 11:04:15;;;;;;;;;;;;;;;12.61;61.84;101073.70;1693871;83;21728;-57
2021/09/27 11:06:52;;;;;;;1.37;0.30;;;;;;;12.60;61.89;101075.55;1673695;83;20512;-57
2021/09/27 11:09:32;;;;;;;0.30;0.20;;;;;;;12.58;62.02;101065.55;1684789;83;21143;-58
2021/09/27 11:12:17;;;;;;;0.33;0.15;;;;;;;12.68;62.30;101057.73;1680783;83;21144;-59
2021/09/27 11:14:51;;;;;;;3.75;0.20;;;;;;;12.84;62.45;101066.91;1680137;83;21105;-57
2021/09/27 11:17:42;;;;;;;0.45;0.10;;;;;;;12.92;62.10;101064.64;1674283;83;21009;-60
2021/09/27 11:20:24;;;;;;;0.75;0.30;;;;;;;12.94;62.17;101063.46;1672844;83;21064;-60
2021/09/27 11:23:01;;;;;;;1.17;0.40;;;;;;;12.99;62.11;101066.38;1677070;83;21073;-59
2021/09/27 11:25:39;;;;;;;4.05;3.65;;;;;;;13.01;62.19;101059.00;1691299;83;21037;-57
2021/09/27 11:28:16;;;;;;;0.45;0.40;;;;;;;13.02;61.86;101058.00;1676172;83;21180;-58
2021/09/27 11:31:20;;;;;;;0.30;0.28;;;;;;;13.10;61.30;101058.91;1691905;83;21107;-58
2021/09/27 11:33:51;;;;;;;0.75;0.20;;;;;;;13.14;61.22;101061.53;1684715;83;21637;-57
2021/09/27 11:36:35;;;;;;;1.05;0.30;;;;;;;13.14;61.03;101065.55;1673308;83;21041;-58
2021/09/27 11:39:15;;;;;;;1.77;0.37;;;;;;;13.12;60.95;101064.91;1683240;83;21559;-61
2021/09/27 11:42:12;;;;;;;1.65;0.47;;;;;;;13.14;60.54;101061.53;1673997;83;21128;-58
2021/09/27 11:45:09;;;;;;;0.40;0.28;;;;;;;13.07;60.61;101054.75;1684261;83;21647;-59
2021/09/27 11:47:45;;;;;;;0.30;0.20;;;;;;;13.12;60.59;101068.92;1679177;83;21077;-57
2021/09/27 11:50:45;;;;;;;1.95;0.33;;;;;;;13.10;61.02;101064.27;1662388;83;21129;-58
2021/09/27 11:53:37;;;;;;;0.50;0.37;;;;;;;13.08;60.65;101062.29;1670175;83;21088;-57
2021/09/27 11:56:12;;;;;;;2.17;0.33;;;;;;;13.04;60.59;101060.49;1685022;83;21270;-57
2021/09/27 11:59:02;;;;;;;1.95;0.30;;;;;;;13.02;60.95;101063.86;1667136;83;21598;-59
2021/09/27 12:02:01;;;;;;;0.90;0.25;;;;;;;13.05;61.42;101063.47;1677733;83;21091;-60
2021/09/27 12:05:01;;;;;;;1.42;0.40;;;;;;;13.14;61.34;101062.88;1675482;83;21124;-57
2021/09/27 12:07:58;;;;;;;0.98;0.20;;;;;;;13.18;61.73;101064.97;1689402;83;21093;-57
2021/09/27 12:10:30;;;;;;;2.90;0.35;;;;;;;13.30;61.74;101068.05;1683883;83;21168;-62
2021/09/27 12:13:06;;;;;;;5.60;2.00;;;;;;;13.36;62.56;101064.61;1674832;83;21035;-60
2021/09/27 12:15:38;;;;;;;3.95;2.35;;;;;;;13.37;62.57;101066.28;1657915;84;21045;-59
2021/09/27 12:18:06;;;;;;;1.10;0.62;;;;;;;13.38;62.78;101062.56;1666959;83;21119;-60
2021/09/27 12:20:40;;;;;;;0.72;0.40;;;;;;;13.34;62.86;101065.83;1678653;83;21091;-60
2021/09/27 12:23:11;;;;;;;0.50;0.40;;;;;;;13.30;63.28;101069.38;1677028;83;21093;-60
2021/09/27 12:25:42;;;;;;;1.05;0.30;;;;;;;13.23;63.41;101072.45;1668204;83;21156;-59